Terminal Aerodrome Forecast
Issued by NWS

Home | Current Version | Previous Version | Text Only | Print | Product List | Glossary On
Versions: 1 2 3 4 5 6 7 8 9 10 11 12 13 14 15 16 17 18 19 20 21 22 23 24 25 26 27 28 29
000
FTUS43 KAPX 301311 AAA
TAFTVC
TAF AMD
KTVC 301311Z 3013/3112 00000KT 3SM BR SCT006
     FM301430 VRB03KT P6SM SCT025
     FM301800 36006KT P6SM SCT035
     FM310100 00000KT P6SM SKC
      TEMPO 3108/3112 5SM BR=

USA.gov is the U.S. government's official web portal to all federal, state and local government web resources and services.